createdAt,value
2022-12-11T00:00:53.696Z,0.90
2022-12-11T00:03:21.209Z,0.80
2022-12-11T00:05:48.733Z,0.68
2022-12-11T00:08:16.299Z,0.80
2022-12-11T00:10:50.100Z,1.00
2022-12-11T00:13:17.602Z,0.70
2022-12-11T00:15:45.170Z,0.95
2022-12-11T00:18:14.177Z,0.93
2022-12-11T00:20:41.782Z,0.85
2022-12-11T00:23:10.844Z,1.00
2022-12-11T00:25:45.548Z,0.80
2022-12-11T00:28:15.128Z,0.80
2022-12-11T00:30:43.194Z,0.70
2022-12-11T00:33:12.272Z,0.75
2022-12-11T00:35:41.672Z,0.80
2022-12-11T00:38:09.599Z,0.80
2022-12-11T00:40:37.435Z,1.00
2022-12-11T00:43:05.048Z,0.75
2022-12-11T00:45:37.019Z,0.70
2022-12-11T00:48:04.994Z,0.93
2022-12-11T00:50:32.961Z,0.60
2022-12-11T00:53:00.648Z,0.75
2022-12-11T00:55:29.292Z,0.70
2022-12-11T00:57:58.381Z,0.80
2022-12-11T01:00:25.810Z,0.65
2022-12-11T01:02:53.312Z,0.70
2022-12-11T01:05:20.789Z,0.75
2022-12-11T01:07:48.246Z,0.70
2022-12-11T01:10:24.773Z,0.70
2022-12-11T01:12:54.460Z,0.60
2022-12-11T01:15:24.587Z,0.70
2022-12-11T01:17:52.594Z,0.82
2022-12-11T01:20:21.922Z,0.70
2022-12-11T01:22:53.679Z,0.63
2022-12-11T01:25:21.392Z,0.80
2022-12-11T01:27:51.884Z,0.60
2022-12-11T01:30:21.249Z,0.52
2022-12-11T01:32:49.027Z,0.85
2022-12-11T01:35:17.555Z,0.65
2022-12-11T01:37:45.692Z,0.60
2022-12-11T01:40:19.577Z,0.70
2022-12-11T01:42:47.797Z,0.68
2022-12-11T01:45:30.513Z,0.60
2022-12-11T01:48:06.531Z,0.60
2022-12-11T01:50:39.764Z,1.07
2022-12-11T01:53:10.366Z,0.68
2022-12-11T01:55:40.032Z,0.70
2022-12-11T01:58:08.579Z,0.68
2022-12-11T02:00:36.201Z,0.70
2022-12-11T02:03:03.672Z,0.63
2022-12-11T02:05:31.168Z,0.60
2022-12-11T02:08:02.330Z,0.80
2022-12-11T02:11:01.424Z,0.60
2022-12-11T02:13:36.361Z,0.70
2022-12-11T02:16:21.826Z,0.60
2022-12-11T02:19:00.543Z,0.60
2022-12-11T02:21:43.129Z,0.82
2022-12-11T02:24:35.055Z,0.70
2022-12-11T02:27:05.196Z,0.70
2022-12-11T02:29:39.627Z,0.68
2022-12-11T02:32:13.617Z,0.70
2022-12-11T02:34:49.379Z,0.70
2022-12-11T02:37:20.602Z,0.75
2022-12-11T02:39:51.370Z,0.70
2022-12-11T02:42:20.605Z,1.17
2022-12-11T02:44:49.956Z,0.60
2022-12-11T02:47:19.977Z,0.80
2022-12-11T02:49:49.912Z,0.70
2022-12-11T02:52:21.866Z,0.60
2022-12-11T02:54:52.754Z,0.70
2022-12-11T02:57:30.123Z,0.90
2022-12-11T02:59:57.581Z,0.70
2022-12-11T03:02:25.105Z,0.70
2022-12-11T03:04:53.041Z,0.68
2022-12-11T03:07:28.622Z,0.80
2022-12-11T03:09:56.045Z,0.73
2022-12-11T03:12:32.716Z,0.75
2022-12-11T03:15:03.542Z,0.68
2022-12-11T03:18:15.769Z,0.70
2022-12-11T03:21:20.212Z,0.82
2022-12-11T03:24:10.522Z,0.73
2022-12-11T03:26:43.872Z,0.70
2022-12-11T03:29:21.223Z,0.80
2022-12-11T03:32:03.920Z,1.85
2022-12-11T03:34:38.659Z,0.70
2022-12-11T03:37:08.876Z,0.63
2022-12-11T03:39:41.057Z,0.60
2022-12-11T03:42:12.064Z,0.70
2022-12-11T03:44:40.420Z,0.93
2022-12-11T03:47:10.138Z,0.70
2022-12-11T03:49:42.119Z,0.98
2022-12-11T03:52:12.536Z,0.60
2022-12-11T03:54:43.113Z,0.93
2022-12-11T03:57:15.756Z,0.77
2022-12-11T03:59:43.355Z,0.70
2022-12-11T04:02:11.149Z,0.73
2022-12-11T04:04:39.730Z,0.80
2022-12-11T04:07:08.283Z,0.93
2022-12-11T04:09:36.317Z,0.80
2022-12-11T04:12:03.829Z,0.80
2022-12-11T04:14:50.232Z,1.10
2022-12-11T04:17:37.617Z,0.80
2022-12-11T04:20:24.989Z,1.20
2022-12-11T04:25:38.281Z,0.77
2022-12-11T04:28:05.723Z,0.90
2022-12-11T04:30:34.486Z,1.00
2022-12-11T04:33:02.371Z,1.00
2022-12-11T04:35:29.798Z,1.10
2022-12-11T04:37:57.366Z,0.98
2022-12-11T04:40:25.315Z,0.80
2022-12-11T04:42:52.861Z,0.85
2022-12-11T04:45:20.312Z,1.10
2022-12-11T04:47:47.909Z,0.80
2022-12-11T04:50:16.158Z,1.23
2022-12-11T04:52:43.947Z,0.80
2022-12-11T04:55:12.582Z,0.93
2022-12-11T04:57:40.216Z,0.93
2022-12-11T05:00:11.435Z,1.20
2022-12-11T05:02:40.506Z,0.82
2022-12-11T05:05:11.241Z,1.00
2022-12-11T05:07:40.048Z,1.20
2022-12-11T05:10:08.295Z,0.90
2022-12-11T05:12:35.727Z,0.70
2022-12-11T05:15:03.597Z,1.38
2022-12-11T05:17:31.082Z,1.17
2022-12-11T05:19:58.466Z,0.90
2022-12-11T05:22:25.931Z,0.90
2022-12-11T05:24:53.404Z,1.15
2022-12-11T05:27:21.003Z,1.13
2022-12-11T05:29:48.470Z,1.20
2022-12-11T05:32:16.029Z,0.93
2022-12-11T05:34:43.484Z,1.13
2022-12-11T05:37:10.916Z,1.20
2022-12-11T05:39:38.486Z,1.00
2022-12-11T05:42:05.937Z,1.20
2022-12-11T05:44:33.831Z,1.20
2022-12-11T05:47:01.294Z,1.20
2022-12-11T05:49:31.039Z,1.45
2022-12-11T05:51:58.739Z,1.05
2022-12-11T05:54:26.141Z,1.52
2022-12-11T05:56:53.553Z,1.30
2022-12-11T05:59:21.052Z,1.17
2022-12-11T06:01:48.631Z,1.35
2022-12-11T06:04:16.156Z,1.10
2022-12-11T06:06:46.674Z,1.33
2022-12-11T06:09:15.668Z,1.20
2022-12-11T06:11:43.485Z,1.10
2022-12-11T06:14:12.079Z,1.27
2022-12-11T06:16:39.742Z,1.20
2022-12-11T06:19:07.448Z,1.25
2022-12-11T06:21:34.895Z,1.40
2022-12-11T06:24:05.683Z,1.30
2022-12-11T06:26:33.303Z,1.25
2022-12-11T06:29:00.706Z,1.20
2022-12-11T06:31:28.226Z,1.30
2022-12-11T06:33:55.962Z,1.30
2022-12-11T06:36:24.505Z,1.75
2022-12-11T06:38:52.853Z,1.33
2022-12-11T06:41:20.401Z,1.50
2022-12-11T06:43:47.836Z,1.55
2022-12-11T06:46:18.438Z,1.25
2022-12-11T06:48:46.635Z,1.55
2022-12-11T06:51:17.166Z,1.75
2022-12-11T06:53:45.375Z,1.55
2022-12-11T06:56:15.754Z,1.48
2022-12-11T06:58:43.946Z,1.95
2022-12-11T07:01:23.596Z,1.83
2022-12-11T07:03:54.366Z,1.50
2022-12-11T07:06:22.285Z,1.70
2022-12-11T07:08:49.732Z,1.40
2022-12-11T07:11:19.340Z,1.40
2022-12-11T07:13:47.128Z,1.55
2022-12-11T07:16:16.297Z,1.67
2022-12-11T07:18:48.001Z,1.52
2022-12-11T07:21:15.837Z,1.50
2022-12-11T07:23:43.417Z,1.98
2022-12-11T07:26:13.420Z,1.50
2022-12-11T07:28:41.745Z,1.55
2022-12-11T07:31:12.055Z,1.73
2022-12-11T07:33:40.396Z,1.48
2022-12-11T07:36:09.484Z,1.63
2022-12-11T07:38:37.419Z,1.83
2022-12-11T07:41:07.328Z,1.60
2022-12-11T07:43:35.599Z,2.53
2022-12-11T07:46:05.526Z,1.42
2022-12-11T07:48:36.547Z,1.63
2022-12-11T07:51:17.360Z,1.67
2022-12-11T07:53:46.710Z,1.80
2022-12-11T07:56:15.751Z,2.05
2022-12-11T07:58:43.517Z,1.63
2022-12-11T08:01:22.463Z,1.70
2022-12-11T08:03:50.908Z,1.85
2022-12-11T08:06:21.481Z,1.73
2022-12-11T08:08:49.084Z,2.08
2022-12-11T08:11:16.524Z,1.90
2022-12-11T08:13:44.414Z,1.70
2022-12-11T08:16:14.400Z,2.13
2022-12-11T08:18:43.452Z,4.03
2022-12-11T08:21:18.758Z,2.10
2022-12-11T08:23:46.638Z,1.95
2022-12-11T08:26:16.503Z,1.70
2022-12-11T08:28:44.715Z,1.67
2022-12-11T08:31:13.918Z,1.98
2022-12-11T08:33:41.955Z,1.85
2022-12-11T08:36:12.711Z,1.98
2022-12-11T08:38:40.717Z,2.42
2022-12-11T08:41:12.656Z,1.77
2022-12-11T08:43:40.608Z,1.80
2022-12-11T08:46:09.117Z,1.63
2022-12-11T08:48:38.713Z,1.80
2022-12-11T08:51:09.285Z,2.10
2022-12-11T08:53:36.950Z,2.53
2022-12-11T08:56:09.738Z,1.63
2022-12-11T08:58:37.907Z,2.08
2022-12-11T09:01:12.771Z,2.53
2022-12-11T09:03:41.337Z,1.90
2022-12-11T09:06:11.730Z,2.40
2022-12-11T09:08:39.396Z,1.75
2022-12-11T09:11:09.243Z,2.13
2022-12-11T09:13:37.643Z,2.95
2022-12-11T09:16:07.450Z,1.85
2022-12-11T09:18:36.208Z,2.58
2022-12-11T09:21:06.961Z,2.30
2022-12-11T09:23:34.522Z,2.08
2022-12-11T09:26:11.080Z,2.78
2022-12-11T09:28:44.309Z,1.98
2022-12-11T09:31:19.749Z,2.10
2022-12-11T09:33:47.609Z,3.10
2022-12-11T09:36:15.103Z,2.10
2022-12-11T09:38:45.638Z,1.77
2022-12-11T09:41:36.280Z,2.63
2022-12-11T09:44:30.182Z,1.95
2022-12-11T09:46:59.013Z,2.53
2022-12-11T09:49:42.531Z,1.92
2022-12-11T09:52:31.858Z,2.30
2022-12-11T09:55:02.383Z,2.20
2022-12-11T09:57:40.126Z,1.95
2022-12-11T10:00:16.591Z,2.03
2022-12-11T10:03:11.535Z,2.33
2022-12-11T10:06:06.959Z,2.00
2022-12-11T10:08:49.059Z,1.80
2022-12-11T10:11:55.902Z,2.17
2022-12-11T10:14:35.909Z,2.38
2022-12-11T10:17:34.055Z,1.83
2022-12-11T10:20:24.485Z,2.15
2022-12-11T10:22:54.372Z,1.90
2022-12-11T10:25:44.896Z,1.95
2022-12-11T10:28:14.674Z,2.13
2022-12-11T10:30:57.756Z,2.15
2022-12-11T10:33:37.159Z,2.22
2022-12-11T10:36:08.002Z,2.25
2022-12-11T10:38:42.923Z,2.38
2022-12-11T10:41:40.636Z,3.25
2022-12-11T10:44:22.764Z,1.95
2022-12-11T10:47:06.005Z,2.17
2022-12-11T10:49:35.314Z,1.80
2022-12-11T10:52:11.892Z,2.28
2022-12-11T10:54:47.074Z,2.22
2022-12-11T10:57:15.807Z,2.30
2022-12-11T10:59:43.244Z,2.10
2022-12-11T11:02:32.337Z,2.10
2022-12-11T11:05:10.655Z,2.13
2022-12-11T11:07:38.334Z,2.00
2022-12-11T11:10:05.879Z,2.00
2022-12-11T11:12:47.759Z,2.08
2022-12-11T11:15:25.762Z,2.35
2022-12-11T11:18:00.813Z,2.38
2022-12-11T11:20:31.051Z,2.40
2022-12-11T11:23:05.038Z,2.00
2022-12-11T11:25:33.724Z,2.35
2022-12-11T11:28:06.989Z,2.00
2022-12-11T11:30:37.308Z,2.10
2022-12-11T11:33:12.821Z,2.17
2022-12-11T11:35:45.709Z,2.38
2022-12-11T11:38:18.793Z,2.65
2022-12-11T11:40:53.374Z,2.25
2022-12-11T11:43:36.976Z,2.20
2022-12-11T11:46:40.535Z,1.80
2022-12-11T11:49:23.012Z,1.98
2022-12-11T11:52:03.854Z,2.47
2022-12-11T11:54:35.652Z,2.33
2022-12-11T11:57:13.794Z,2.75
2022-12-11T12:00:09.923Z,2.10
2022-12-11T12:02:41.668Z,2.80
2022-12-11T12:05:13.803Z,2.30
2022-12-11T12:07:51.467Z,2.30
2022-12-11T12:10:27.033Z,2.42
2022-12-11T12:13:48.742Z,2.50
2022-12-11T12:16:52.082Z,2.10
2022-12-11T12:19:51.367Z,2.20
2022-12-11T12:22:51.452Z,2.22
2022-12-11T12:25:40.848Z,2.20
2022-12-11T12:28:36.296Z,1.95
2022-12-11T12:31:18.520Z,2.20
2022-12-11T12:33:54.220Z,2.00
2022-12-11T12:36:37.625Z,2.58
2022-12-11T12:39:35.433Z,2.28
2022-12-11T12:42:07.703Z,2.30
2022-12-11T12:44:46.811Z,2.00
2022-12-11T12:47:18.465Z,2.20
2022-12-11T12:49:48.538Z,3.17
2022-12-11T12:52:21.378Z,2.45
2022-12-11T12:55:12.965Z,2.05
2022-12-11T12:57:45.061Z,2.20
2022-12-11T13:00:13.714Z,2.83
2022-12-11T13:02:51.767Z,3.47
2022-12-11T13:05:28.853Z,2.22
2022-12-11T13:08:02.529Z,2.17
2022-12-11T13:10:38.264Z,1.98
2022-12-11T13:13:25.465Z,2.67
2022-12-11T13:15:53.341Z,2.50
2022-12-11T13:18:39.461Z,2.10
2022-12-11T13:21:30.838Z,2.33
2022-12-11T13:24:28.076Z,2.10
2022-12-11T13:26:55.952Z,2.45
2022-12-11T13:29:30.593Z,1.85
2022-12-11T13:32:01.375Z,2.20
2022-12-11T13:34:33.717Z,2.10
2022-12-11T13:37:02.930Z,2.30
2022-12-11T13:39:35.057Z,2.03
2022-12-11T13:42:11.873Z,2.45
2022-12-11T13:44:43.223Z,2.40
2022-12-11T13:47:17.196Z,2.08
2022-12-11T13:49:48.994Z,2.40
2022-12-11T13:52:22.476Z,2.15
2022-12-11T13:54:53.002Z,2.28
2022-12-11T13:57:23.224Z,2.08
2022-12-11T13:59:53.390Z,2.20
2022-12-11T14:02:31.960Z,2.20
2022-12-11T14:05:10.048Z,2.30
2022-12-11T14:07:49.924Z,2.35
2022-12-11T14:10:24.761Z,2.30
2022-12-11T14:13:03.445Z,2.60
2022-12-11T14:15:33.041Z,2.30
2022-12-11T14:18:01.007Z,2.15
2022-12-11T14:20:31.696Z,2.55
2022-12-11T14:23:15.269Z,1.90
2022-12-11T14:25:42.720Z,2.05
2022-12-11T14:28:17.402Z,2.63
2022-12-11T14:30:50.729Z,2.15
2022-12-11T14:33:22.000Z,2.08
2022-12-11T14:35:52.529Z,2.17
2022-12-11T14:38:29.168Z,2.38
2022-12-11T14:41:02.816Z,2.35
2022-12-11T14:43:36.537Z,2.47
2022-12-11T14:46:09.403Z,2.42
2022-12-11T14:48:45.189Z,2.65
2022-12-11T14:51:16.368Z,2.30
2022-12-11T14:53:49.356Z,2.20
2022-12-11T14:56:22.320Z,2.67
2022-12-11T14:59:06.209Z,2.80
2022-12-11T15:01:36.561Z,2.03
2022-12-11T15:04:06.711Z,2.22
2022-12-11T15:06:42.797Z,1.92
2022-12-11T15:09:20.527Z,2.47
2022-12-11T15:11:50.862Z,2.42
2022-12-11T15:14:20.844Z,2.90
2022-12-11T15:16:49.774Z,2.22
2022-12-11T15:19:47.669Z,3.17
2022-12-11T15:22:16.957Z,1.90
2022-12-11T15:24:48.604Z,2.42
2022-12-11T15:27:30.107Z,2.30
2022-12-11T15:29:57.685Z,2.38
2022-12-11T15:32:25.644Z,2.40
2022-12-11T15:34:54.752Z,2.05
2022-12-11T15:37:31.693Z,2.30
2022-12-11T15:42:45.391Z,1.83
2022-12-11T15:45:18.053Z,2.33
2022-12-11T15:47:46.294Z,2.20
2022-12-11T15:50:21.693Z,2.08
2022-12-11T15:52:51.138Z,2.08
2022-12-11T15:55:20.045Z,1.88
2022-12-11T15:57:56.836Z,2.15
2022-12-11T16:00:25.140Z,2.08
2022-12-11T16:02:52.663Z,2.08
2022-12-11T16:05:20.735Z,2.25
2022-12-11T16:07:49.195Z,2.22
2022-12-11T16:10:18.725Z,2.53
2022-12-11T16:12:46.543Z,2.53
2022-12-11T16:15:21.459Z,2.88
2022-12-11T16:17:50.836Z,2.20
2022-12-11T16:20:18.451Z,2.30
2022-12-11T16:22:45.966Z,1.77
2022-12-11T16:25:13.640Z,1.88
2022-12-11T16:27:41.326Z,2.58
2022-12-11T16:30:10.740Z,1.80
2022-12-11T16:32:38.256Z,2.30
2022-12-11T16:35:07.272Z,2.10
2022-12-11T16:37:34.853Z,2.95
2022-12-11T16:40:02.348Z,2.20
2022-12-11T16:42:30.163Z,2.75
2022-12-11T16:45:12.585Z,1.77
2022-12-11T16:47:40.264Z,2.22
2022-12-11T16:50:08.669Z,3.83
2022-12-11T16:52:36.393Z,1.77
2022-12-11T16:55:04.523Z,1.80
2022-12-11T16:57:32.089Z,5.00
2022-12-11T16:59:59.520Z,3.90
2022-12-11T17:02:27.055Z,2.50
2022-12-11T17:04:54.514Z,4.53
2022-12-11T17:07:22.121Z,6.32
2022-12-11T17:09:50.010Z,5.43
2022-12-11T17:12:17.941Z,5.80
2022-12-11T17:14:45.927Z,5.97
2022-12-11T17:17:13.753Z,6.95
2022-12-11T17:19:41.335Z,5.55
2022-12-11T17:22:09.002Z,7.40
2022-12-11T17:24:36.447Z,5.35
2022-12-11T17:27:03.985Z,9.23
2022-12-11T17:29:31.752Z,9.73
2022-12-11T17:31:59.561Z,5.00
2022-12-11T17:34:27.039Z,4.30
2022-12-11T17:36:54.502Z,4.32
2022-12-11T17:39:22.343Z,5.78
2022-12-11T17:41:49.871Z,4.57
2022-12-11T17:44:17.317Z,6.95
2022-12-11T17:46:44.934Z,3.45
2022-12-11T17:49:12.411Z,4.82
2022-12-11T17:51:39.875Z,4.57
2022-12-11T17:54:07.344Z,3.55
2022-12-11T17:56:36.253Z,3.70
2022-12-11T17:59:04.648Z,4.45
2022-12-11T18:01:32.759Z,3.33
2022-12-11T18:04:01.910Z,5.60
2022-12-11T18:06:30.146Z,5.00
2022-12-11T18:08:57.875Z,4.50
2022-12-11T18:11:25.631Z,3.08
2022-12-11T18:13:53.781Z,4.45
2022-12-11T18:16:26.212Z,3.60
2022-12-11T18:18:54.683Z,7.15
2022-12-11T18:21:26.158Z,5.28
2022-12-11T18:23:54.709Z,5.82
2022-12-11T18:26:23.379Z,5.93
2022-12-11T18:28:51.963Z,4.57
2022-12-11T18:31:20.879Z,4.70
2022-12-11T18:33:48.733Z,4.75
2022-12-11T18:36:18.116Z,3.42
2022-12-11T18:38:47.110Z,4.60
2022-12-11T18:41:16.565Z,4.05
2022-12-11T18:43:44.606Z,7.68
2022-12-11T18:46:14.758Z,5.72
2022-12-11T18:48:43.673Z,3.90
2022-12-11T18:51:14.798Z,4.72
2022-12-11T18:53:42.237Z,3.97
2022-12-11T18:56:15.698Z,5.07
2022-12-11T18:58:43.261Z,3.47
2022-12-11T19:01:23.131Z,5.78
2022-12-11T19:03:55.347Z,4.18
2022-12-11T19:06:28.694Z,4.28
2022-12-11T19:08:57.108Z,8.65
2022-12-11T19:11:26.869Z,4.18
2022-12-11T19:13:58.493Z,3.33
2022-12-11T19:16:33.601Z,5.22
2022-12-11T19:19:11.515Z,4.05
2022-12-11T19:21:39.458Z,6.38
2022-12-11T19:24:08.981Z,4.95
2022-12-11T19:26:37.033Z,4.90
2022-12-11T19:29:04.697Z,4.97
2022-12-11T19:31:33.401Z,7.25
2022-12-11T19:34:01.698Z,5.60
2022-12-11T19:36:30.953Z,4.85
2022-12-11T19:39:01.909Z,2.60
2022-12-11T19:41:30.881Z,5.65
2022-12-11T19:43:59.413Z,6.07
2022-12-11T19:46:28.160Z,3.13
2022-12-11T19:48:57.226Z,7.57
2022-12-11T19:51:31.452Z,5.50
2022-12-11T19:53:59.441Z,3.15
2022-12-11T19:56:26.854Z,3.50
2022-12-11T19:58:54.285Z,4.10
2022-12-11T20:01:28.928Z,3.08
2022-12-11T20:04:06.107Z,10.85
2022-12-11T20:06:36.198Z,6.72
2022-12-11T20:09:05.739Z,3.28
2022-12-11T20:11:33.801Z,9.05
2022-12-11T20:14:01.236Z,8.15
2022-12-11T20:16:53.702Z,14.00
2022-12-11T20:21:43.358Z,27.23
2022-12-11T20:24:11.295Z,28.45
2022-12-11T20:26:39.100Z,37.00
2022-12-11T20:29:08.352Z,33.53
2022-12-11T20:31:36.855Z,32.60
2022-12-11T20:34:05.929Z,32.80
2022-12-11T20:36:33.920Z,36.47
2022-12-11T20:39:01.581Z,36.42
2022-12-11T20:41:29.391Z,30.40
2022-12-11T20:43:56.933Z,34.13
2022-12-11T20:46:25.656Z,34.40
2022-12-11T20:48:55.582Z,33.60
2022-12-11T20:51:26.233Z,34.22
2022-12-11T20:53:58.908Z,31.90
2022-12-11T20:56:29.922Z,32.85
2022-12-11T20:58:59.411Z,28.65
2022-12-11T21:01:29.496Z,31.77
2022-12-11T21:03:57.901Z,31.58
2022-12-11T21:06:33.717Z,33.20
2022-12-11T21:09:07.527Z,30.77
2022-12-11T21:11:35.397Z,29.27
2022-12-11T21:14:03.726Z,30.17
2022-12-11T21:16:32.008Z,29.02
2022-12-11T21:18:59.656Z,27.58
2022-12-11T21:21:27.219Z,26.52
2022-12-11T21:23:54.822Z,28.08
2022-12-11T21:26:22.421Z,30.98
2022-12-11T21:28:50.077Z,26.58
2022-12-11T21:31:18.987Z,25.75
2022-12-11T21:33:46.896Z,31.02
2022-12-11T21:36:15.281Z,28.77
2022-12-11T21:38:43.885Z,29.98
2022-12-11T21:41:14.435Z,28.70
2022-12-11T21:44:14.680Z,27.50
2022-12-11T21:46:31.380Z,28.77
2022-12-11T21:49:00.201Z,26.35
2022-12-11T21:51:35.978Z,26.95
2022-12-11T21:54:06.688Z,33.33
2022-12-11T21:56:34.308Z,32.88
2022-12-11T21:59:02.050Z,31.25
2022-12-11T22:01:34.293Z,34.28
2022-12-11T22:04:02.458Z,35.63
2022-12-11T22:06:29.874Z,36.05
2022-12-11T22:08:57.420Z,31.83
2022-12-11T22:11:28.798Z,35.78
2022-12-11T22:13:56.725Z,36.22
2022-12-11T22:16:24.761Z,36.45
2022-12-11T22:18:53.368Z,38.83
2022-12-11T22:21:21.059Z,39.38
2022-12-11T22:23:48.592Z,40.25
2022-12-11T22:26:19.253Z,39.35
2022-12-11T22:28:47.001Z,39.90
2022-12-11T22:31:17.368Z,38.38
2022-12-11T22:33:44.965Z,38.15
2022-12-11T22:36:12.581Z,39.70
2022-12-11T22:38:40.141Z,38.75
2022-12-11T22:41:16.279Z,40.63
2022-12-11T22:43:46.453Z,39.58
2022-12-11T22:46:15.674Z,36.17
2022-12-11T22:48:43.172Z,43.30
2022-12-11T22:51:11.364Z,38.30
2022-12-11T22:53:39.074Z,40.75
2022-12-11T22:56:08.113Z,43.63
2022-12-11T22:58:35.734Z,40.22
2022-12-11T23:01:07.627Z,40.40
2022-12-11T23:03:35.093Z,43.20
2022-12-11T23:06:06.880Z,41.30
2022-12-11T23:08:35.203Z,46.58
2022-12-11T23:11:09.746Z,43.75
2022-12-11T23:13:37.172Z,35.22
2022-12-11T23:16:05.024Z,40.60
2022-12-11T23:18:32.938Z,39.78
2022-12-11T23:21:00.584Z,41.45
2022-12-11T23:23:28.670Z,37.55
2022-12-11T23:25:56.876Z,38.05
2022-12-11T23:28:24.420Z,36.88
2022-12-11T23:30:51.910Z,38.65
2022-12-11T23:33:19.398Z,35.38
2022-12-11T23:35:46.863Z,34.75
2022-12-11T23:38:14.533Z,35.42
2022-12-11T23:40:42.118Z,36.38
2022-12-11T23:43:09.555Z,36.30
2022-12-11T23:45:37.021Z,33.13
2022-12-11T23:48:04.539Z,36.13
2022-12-11T23:50:33.000Z,35.28
2022-12-11T23:53:00.633Z,31.50
2022-12-11T23:55:28.651Z,33.30
2022-12-11T23:57:56.425Z,35.33
